Terminal Aerodrome Forecast
Issued by NWS

Home | Current Version | Previous Version | Text Only | Print | Product List | Glossary On
Versions: 1 2 3 4 5 6 7 8 9 10 11 12 13 14 15 16
000
FTUS46 KLOX 290004 AAA
TAFSBA
TAF AMD
KSBA 290004Z 2900/2924 25008KT P6SM SKC
     FM290200 13006KT P6SM SKC
     FM290500 10006KT 5SM BR BKN005
     FM290700 VRB03KT 1 1/2SM BR OVC003
     FM291100 12004KT 5SM BR BKN005
     FM291700 16005KT P6SM SCT007
     FM291900 23008KT P6SM FEW010=

USA.gov is the U.S. government's official web portal to all federal, state and local government web resources and services.